Time;durP1;ratioP1;P1;durP2;ratioP2;P2;SDS_P1;SDS_P2;PMS_P1;PMS_P2;Temp;Humidity;BMP_temperature;BMP_pressure;BME280_temperature;BME280_humidity;BME280_pressure;Samples;Min_cycle;Max_cycle;Signal;HPM_P1;HPM_P2
2023/01/12 00:02:16;;;;;;;13.45;3.17;;;;;;;7.45;100.00;100978.03;5049893;28;20612;-84
2023/01/12 00:04:41;;;;;;;13.20;3.45;;;;;;;7.45;100.00;100978.88;5048753;28;20052;-84
2023/01/12 00:07:14;;;;;;;12.70;3.72;;;;;;;7.47;100.00;100974.38;5057304;28;20033;-82
2023/01/12 00:09:40;;;;;;;10.43;3.15;;;;;;;7.47;100.00;100971.78;5050087;28;20041;-84
2023/01/12 00:12:09;;;;;;;13.77;3.35;;;;;;;7.52;100.00;100968.88;5041603;28;20029;-84
2023/01/12 00:14:36;;;;;;;12.65;3.35;;;;;;;7.52;100.00;100963.63;5065815;28;20029;-82
2023/01/12 00:17:05;;;;;;;13.70;3.75;;;;;;;7.54;100.00;100952.16;5062273;28;20033;-84
2023/01/12 00:19:32;;;;;;;11.70;2.83;;;;;;;7.53;100.00;100950.47;5050828;28;20037;-84
2023/01/12 00:24:30;;;;;;;13.32;3.35;;;;;;;7.55;100.00;100943.34;5060745;28;20044;-84
2023/01/12 00:27:10;;;;;;;15.18;3.75;;;;;;;7.57;100.00;100945.88;5061984;28;20036;-84
2023/01/12 00:29:43;;;;;;;14.05;3.55;;;;;;;7.59;100.00;100948.41;5061184;28;20036;-84
2023/01/12 00:32:13;;;;;;;15.18;3.85;;;;;;;7.60;100.00;100940.47;5070518;28;20047;-83
2023/01/12 00:34:39;;;;;;;15.48;3.63;;;;;;;7.64;100.00;100925.44;5041263;28;20045;-83
2023/01/12 00:37:04;;;;;;;14.65;3.78;;;;;;;7.64;100.00;100921.03;5039041;28;20051;-82
2023/01/12 00:39:30;;;;;;;15.05;3.75;;;;;;;7.66;100.00;100928.81;5060717;28;20120;-85
2023/01/12 00:47:26;;;;;;;17.02;4.55;;;;;;;7.68;100.00;100912.06;5048838;28;20056;-85
2023/01/12 00:49:52;;;;;;;16.23;4.28;;;;;;;7.70;100.00;100909.34;5063202;28;20036;-84
2023/01/12 00:52:21;;;;;;;15.52;4.07;;;;;;;7.70;100.00;100917.19;5056884;28;20130;-85
2023/01/12 00:54:55;;;;;;;17.33;3.97;;;;;;;7.70;100.00;100911.97;5051410;28;20481;-85
2023/01/12 00:57:41;;;;;;;16.33;3.95;;;;;;;7.73;100.00;100904.75;5056397;28;20045;-83
2023/01/12 01:00:10;;;;;;;17.77;4.22;;;;;;;7.73;100.00;100909.16;5048057;28;20036;-84
2023/01/12 01:02:35;;;;;;;13.30;3.80;;;;;;;7.72;100.00;100897.00;5036737;28;20042;-84
2023/01/12 01:05:01;;;;;;;15.45;4.18;;;;;;;7.72;100.00;100876.03;5070687;28;20031;-82
2023/01/12 01:07:29;;;;;;;17.25;4.45;;;;;;;7.72;100.00;100892.59;5068573;28;20451;-84
2023/01/12 01:09:55;;;;;;;19.38;4.22;;;;;;;7.72;100.00;100870.81;5069622;28;20039;-85
2023/01/12 01:12:29;;;;;;;17.45;4.40;;;;;;;7.72;100.00;100874.28;5033353;28;20045;-84
2023/01/12 01:14:57;;;;;;;19.00;4.20;;;;;;;7.75;100.00;100881.09;5065131;28;20028;-85
2023/01/12 01:17:23;;;;;;;17.45;4.53;;;;;;;7.73;100.00;100867.25;5049740;28;20048;-82
2023/01/12 01:19:51;;;;;;;19.08;4.30;;;;;;;7.73;100.00;100877.72;5034301;28;20040;-82
2023/01/12 01:22:16;;;;;;;25.63;5.70;;;;;;;7.72;100.00;100871.66;5041708;28;20037;-84
2023/01/12 01:24:42;;;;;;;20.77;4.63;;;;;;;7.73;100.00;100867.25;5063080;28;20041;-86
2023/01/12 01:27:08;;;;;;;26.27;5.93;;;;;;;7.75;100.00;100865.38;5031720;28;20028;-85
2023/01/12 01:29:36;;;;;;;22.58;4.68;;;;;;;7.73;100.00;100856.78;5057619;28;20040;-85
2023/01/12 01:32:24;;;;;;;24.65;4.85;;;;;;;7.73;100.00;100865.47;5053226;28;20025;-84
2023/01/12 01:34:50;;;;;;;21.42;5.00;;;;;;;7.73;100.00;100862.00;5048223;28;20044;-84
2023/01/12 01:37:15;;;;;;;24.85;5.05;;;;;;;7.73;100.00;100862.00;5047722;28;20106;-83
2023/01/12 01:39:41;;;;;;;26.15;5.40;;;;;;;7.70;100.00;100860.44;5063678;28;20045;-84
2023/01/12 01:42:26;;;;;;;22.25;4.95;;;;;;;7.70;100.00;100856.97;5030819;28;20029;-83
2023/01/12 01:44:54;;;;;;;22.05;4.93;;;;;;;7.72;100.00;100852.47;5037881;28;20067;-84
2023/01/12 01:47:27;;;;;;;21.80;5.07;;;;;;;7.70;100.00;100851.72;5051309;28;20049;-84
2023/01/12 01:49:56;;;;;;;22.40;5.45;;;;;;;7.70;100.00;100849.13;5049984;28;20083;-83
2023/01/12 01:52:33;;;;;;;26.40;5.57;;;;;;;7.70;100.00;100830.78;5047060;28;20037;-83
2023/01/12 01:55:07;;;;;;;24.48;5.50;;;;;;;7.71;100.00;100817.59;5049355;28;20045;-83
2023/01/12 01:57:41;;;;;;;19.20;4.65;;;;;;;7.70;100.00;100820.31;5059764;28;20028;-79
2023/01/12 02:00:13;;;;;;;16.45;4.30;;;;;;;7.69;100.00;100818.63;5063794;28;20033;-79
2023/01/12 02:02:46;;;;;;;25.95;5.40;;;;;;;7.69;100.00;100813.38;5060553;28;20889;-82
2023/01/12 02:05:17;;;;;;;;;;;;;;;7.74;100.00;100811.31;5047550;28;20029;-81
2023/01/12 02:08:00;;;;;;;28.90;5.50;;;;;;;7.69;100.00;100803.75;5060713;28;19916;-80
2023/01/12 02:10:25;;;;;;;25.65;5.47;;;;;;;7.67;100.00;100808.25;5045064;28;20500;-83
2023/01/12 02:19:21;;;;;;;27.20;5.55;;;;;;;7.69;100.00;100792.44;5055149;28;20421;-83
2023/01/12 02:22:27;;;;;;;20.88;5.28;;;;;;;7.70;100.00;100805.44;5039981;28;20034;-81
2023/01/12 02:25:40;;;;;;;23.73;5.13;;;;;;;7.69;100.00;100798.53;5058433;28;20052;-80
2023/01/12 02:28:46;;;;;;;21.50;4.80;;;;;;;7.69;100.00;100800.28;5069868;28;20064;-83
2023/01/12 02:31:36;;;;;;;30.13;5.85;;;;;;;7.68;100.00;100798.63;5052813;28;20071;-84
2023/01/12 02:34:20;;;;;;;23.30;5.30;;;;;;;7.70;100.00;100794.97;5060715;28;20107;-83
2023/01/12 02:37:28;;;;;;;28.63;5.78;;;;;;;7.76;100.00;100778.84;5055463;28;20040;-83
2023/01/12 02:40:11;;;;;;;22.05;4.75;;;;;;;7.77;100.00;100771.84;5003717;28;20041;-81
2023/01/12 02:42:46;;;;;;;36.42;6.03;;;;;;;7.76;100.00;100759.69;5038386;28;20550;-84
2023/01/12 02:45:38;;;;;;;23.13;5.20;;;;;;;7.80;100.00;100766.41;5051326;28;20393;-83
2023/01/12 02:48:22;;;;;;;20.73;4.63;;;;;;;7.81;100.00;100755.00;5050258;28;20041;-84
2023/01/12 02:51:23;;;;;;;20.35;4.78;;;;;;;7.84;100.00;100765.25;5052656;28;20308;-83
2023/01/12 02:53:58;;;;;;;22.45;5.03;;;;;;;7.84;100.00;100750.38;5028093;28;20040;-82
2023/01/12 02:56:43;;;;;;;21.60;4.78;;;;;;;7.83;100.00;100753.13;5070022;28;20042;-83
2023/01/12 02:59:17;;;;;;;23.67;4.63;;;;;;;7.83;100.00;100753.13;5043100;28;20322;-83
2023/01/12 03:01:47;;;;;;;22.10;4.45;;;;;;;7.84;100.00;100746.94;5050058;28;20037;-83
2023/01/12 03:04:15;;;;;;;19.55;3.92;;;;;;;7.82;100.00;100733.09;5051481;28;20135;-83
2023/01/12 03:07:01;;;;;;;19.58;4.50;;;;;;;7.83;100.00;100730.38;5051832;28;20563;-84
2023/01/12 03:09:36;;;;;;;18.52;4.20;;;;;;;7.84;100.00;100718.13;5046327;28;20127;-85
2023/01/12 03:12:06;;;;;;;19.23;4.25;;;;;;;7.84;100.00;100711.09;5053733;28;20112;-84
2023/01/12 03:14:36;;;;;;;19.73;4.25;;;;;;;7.85;100.00;100704.91;5038516;28;20037;-84
2023/01/12 03:17:10;;;;;;;19.35;3.95;;;;;;;7.85;100.00;100698.84;5037736;28;20116;-84
2023/01/12 03:19:42;;;;;;;22.92;4.97;;;;;;;7.84;100.00;100691.94;5055424;28;20119;-84
2023/01/12 03:22:12;;;;;;;23.55;4.57;;;;;;;7.84;100.00;100678.84;5056019;28;20044;-84
2023/01/12 03:24:45;;;;;;;18.27;4.53;;;;;;;7.84;100.00;100682.28;5064338;28;20121;-82
2023/01/12 03:27:22;;;;;;;19.35;3.90;;;;;;;7.86;100.00;100676.94;5065418;28;20032;-84
2023/01/12 03:30:23;;;;;;;17.77;3.95;;;;;;;7.87;100.00;100670.78;5045367;28;20067;-83
2023/01/12 03:32:50;;;;;;;20.83;4.40;;;;;;;7.85;100.00;100665.63;5008530;28;20083;-83
2023/01/12 03:35:21;;;;;;;16.02;3.33;;;;;;;7.86;100.00;100669.09;5044594;28;20493;-84
2023/01/12 03:38:03;;;;;;;19.33;3.85;;;;;;;7.85;100.00;100656.94;5071064;28;20074;-81
2023/01/12 03:40:40;;;;;;;17.05;3.67;;;;;;;7.86;100.00;100676.94;5061783;28;20033;-81
2023/01/12 03:43:14;;;;;;;16.52;3.80;;;;;;;7.87;100.00;100662.91;5052154;28;20029;-84
2023/01/12 03:45:55;;;;;;;16.25;3.22;;;;;;;7.89;100.00;100639.25;5048656;28;20034;-84
2023/01/12 03:48:28;;;;;;;14.02;3.35;;;;;;;7.88;100.00;100634.94;5049683;28;20456;-83
2023/01/12 03:51:09;;;;;;;14.27;3.17;;;;;;;7.90;100.00;100628.66;5062707;28;20386;-84
2023/01/12 03:53:38;;;;;;;15.02;3.45;;;;;;;7.89;100.00;100621.75;5051144;28;20056;-83
2023/01/12 03:56:07;;;;;;;12.75;2.95;;;;;;;7.88;100.00;100588.63;5071576;28;20029;-82
2023/01/12 03:58:39;;;;;;;18.92;4.05;;;;;;;7.88;100.00;100580.78;5047069;28;20037;-84
2023/01/12 04:01:04;;;;;;;17.60;3.60;;;;;;;7.87;100.00;100560.75;5062347;28;20040;-83
2023/01/12 04:03:33;;;;;;;14.80;3.67;;;;;;;7.88;100.00;100583.38;5050986;28;20036;-84
2023/01/12 04:05:58;;;;;;;19.55;3.72;;;;;;;7.87;100.00;100566.00;5048872;28;20052;-84
2023/01/12 04:08:23;;;;;;;17.75;3.50;;;;;;;7.86;100.00;100564.31;5070008;28;20036;-84
2023/01/12 04:10:49;;;;;;;14.25;3.00;;;;;;;7.88;100.00;100545.88;5062629;28;20036;-84
2023/01/12 04:13:14;;;;;;;13.10;3.55;;;;;;;7.86;100.00;100548.59;5067711;28;20037;-84
2023/01/12 04:15:42;;;;;;;19.30;3.97;;;;;;;7.88;100.00;100536.25;5056754;28;20041;-83
2023/01/12 04:18:09;;;;;;;16.15;3.30;;;;;;;7.86;100.00;100538.97;5066524;28;20170;-84
2023/01/12 04:20:35;;;;;;;19.20;4.10;;;;;;;7.85;100.00;100539.91;5044005;28;20124;-85
2023/01/12 04:23:01;;;;;;;16.40;3.85;;;;;;;7.83;100.00;100531.31;5047337;28;20128;-84
2023/01/12 04:25:29;;;;;;;16.55;3.53;;;;;;;7.83;100.00;100526.09;5050103;28;20032;-84
2023/01/12 04:28:00;;;;;;;18.48;4.38;;;;;;;7.83;100.00;100527.88;5050098;28;20033;-81
2023/01/12 04:30:27;;;;;;;16.02;3.65;;;;;;;7.81;100.00;100521.88;5050172;28;20393;-81
2023/01/12 04:33:08;;;;;;;15.48;3.45;;;;;;;7.80;100.00;100512.34;5032722;28;20119;-86
2023/01/12 04:35:36;;;;;;;18.60;3.92;;;;;;;7.80;100.00;100496.66;5066746;28;20116;-86
2023/01/12 04:38:10;;;;;;;14.75;4.10;;;;;;;7.77;100.00;100496.84;5051295;28;20405;-86
2023/01/12 04:40:36;;;;;;;16.15;3.63;;;;;;;7.79;100.00;100494.97;5048103;28;20406;-85
2023/01/12 04:43:06;;;;;;;12.63;3.08;;;;;;;7.79;100.00;100485.34;5032078;28;20065;-85
2023/01/12 04:45:33;;;;;;;15.63;3.80;;;;;;;7.79;100.00;100481.88;5052473;28;20033;-85
2023/01/12 04:48:13;;;;;;;16.17;3.90;;;;;;;7.80;100.00;100471.28;5048760;28;20041;-86
2023/01/12 04:50:39;;;;;;;17.10;3.63;;;;;;;7.79;100.00;100448.66;5033786;28;20071;-87
2023/01/12 04:53:07;;;;;;;14.63;3.95;;;;;;;7.77;100.00;100424.38;5050780;28;20029;-85
2023/01/12 04:55:39;;;;;;;16.17;3.78;;;;;;;7.77;100.00;100444.47;5048436;28;20044;-86
2023/01/12 04:58:04;;;;;;;17.58;3.95;;;;;;;7.78;100.00;100430.44;5090698;28;20150;-84
2023/01/12 05:00:29;;;;;;;17.92;3.38;;;;;;;7.78;100.00;100441.75;5079969;28;20032;-85
2023/01/12 05:03:04;;;;;;;16.67;3.53;;;;;;;7.79;100.00;100453.06;5068211;28;20131;-85
2023/01/12 05:05:32;;;;;;;18.90;3.92;;;;;;;7.81;100.00;100446.78;5058825;28;20063;-82
2023/01/12 05:11:05;;;;;;;16.00;3.55;;;;;;;7.84;100.00;100419.53;5070407;28;20109;-84
2023/01/12 05:13:33;;;;;;;16.60;3.42;;;;;;;7.81;100.00;100425.00;5069296;28;20028;-85
2023/01/12 05:16:15;;;;;;;18.65;3.70;;;;;;;7.80;100.00;100445.09;5079367;28;20036;-84
2023/01/12 05:18:42;;;;;;;15.15;3.95;;;;;;;7.81;100.00;100448.56;5062231;28;20450;-85
2023/01/12 05:21:08;;;;;;;17.40;3.33;;;;;;;7.79;100.00;100427.72;5070676;28;20113;-83
2023/01/12 05:23:33;;;;;;;16.75;3.53;;;;;;;7.82;100.00;100442.38;5058170;28;20036;-83
2023/01/12 05:26:00;;;;;;;16.75;3.50;;;;;;;7.83;100.00;100444.06;5079403;28;20431;-83
2023/01/12 05:28:27;;;;;;;14.32;3.03;;;;;;;7.80;100.00;100439.03;5074659;28;20120;-83
2023/01/12 05:30:53;;;;;;;13.68;2.75;;;;;;;7.79;100.00;100432.13;5085691;28;20039;-84
2023/01/12 05:33:21;;;;;;;19.35;3.80;;;;;;;7.78;100.00;100440.91;5084676;28;20036;-84
2023/01/12 05:35:47;;;;;;;16.33;3.50;;;;;;;7.80;100.00;100428.56;5067346;28;20469;-80
2023/01/12 05:38:22;;;;;;;18.40;3.95;;;;;;;7.79;100.00;100432.13;5078111;28;20115;-84
2023/01/12 05:40:50;;;;;;;15.85;3.20;;;;;;;7.77;100.00;100429.59;5084696;28;20049;-83
2023/01/12 05:46:04;;;;;;;18.90;4.03;;;;;;;7.80;100.00;100428.56;5089625;28;20055;-83
2023/01/12 05:48:31;;;;;;;16.08;3.45;;;;;;;7.81;100.00;100422.38;5067958;28;20067;-83
2023/01/12 05:51:05;;;;;;;16.27;3.08;;;;;;;7.81;100.00;100425.81;5049595;28;22033;-83
2023/01/12 05:53:30;;;;;;;17.63;3.30;;;;;;;7.82;100.00;100424.88;5078878;28;20032;-83
2023/01/12 05:55:57;;;;;;;15.15;2.95;;;;;;;7.83;100.00;100428.34;5081645;28;20481;-83
2023/01/12 05:58:23;;;;;;;13.40;2.85;;;;;;;7.86;100.00;100422.88;5087243;28;20527;-82
2023/01/12 06:00:52;;;;;;;17.65;2.97;;;;;;;7.87;100.00;100429.78;5072787;28;20037;-84
2023/01/12 06:03:23;;;;;;;16.27;2.83;;;;;;;7.87;100.00;100424.56;5067254;28;20041;-82
2023/01/12 06:05:53;;;;;;;13.25;3.00;;;;;;;7.91;100.00;100414.69;5068835;28;20047;-82
2023/01/12 06:08:21;;;;;;;12.88;2.20;;;;;;;7.91;100.00;100415.53;5067481;28;20862;-83
2023/01/12 06:10:47;;;;;;;13.35;2.88;;;;;;;7.92;100.00;100422.44;5068940;28;20044;-83
2023/01/12 06:16:03;;;;;;;12.07;2.67;;;;;;;7.94;100.00;100428.41;5090379;28;20070;-83
2023/01/12 06:18:33;;;;;;;12.63;2.42;;;;;;;7.96;100.00;100429.16;5083049;28;20123;-83
2023/01/12 06:20:58;;;;;;;10.73;2.63;;;;;;;7.96;100.00;100421.28;5068222;28;20443;-84
2023/01/12 06:23:27;;;;;;;8.00;1.95;;;;;;;7.99;100.00;100428.94;5068094;28;20032;-83
2023/01/12 06:25:52;;;;;;;10.70;2.70;;;;;;;7.99;100.00;100435.97;5044512;28;20039;-84
2023/01/12 06:28:17;;;;;;;7.68;2.20;;;;;;;8.02;100.00;100425.28;5087031;28;20033;-84
2023/01/12 06:30:43;;;;;;;8.63;2.25;;;;;;;8.00;100.00;100427.16;5074031;28;20047;-84
2023/01/12 06:33:08;;;;;;;8.23;1.80;;;;;;;8.02;100.00;100439.22;5083131;28;20029;-84
2023/01/12 06:35:33;;;;;;;10.73;2.22;;;;;;;8.03;100.00;100433.03;5086272;28;20035;-81
2023/01/12 06:37:59;;;;;;;8.20;2.03;;;;;;;8.05;100.00;100428.53;5070207;28;20040;-84
2023/01/12 06:40:25;;;;;;;8.25;2.05;;;;;;;8.06;100.00;100435.44;5076649;28;20112;-81
2023/01/12 06:42:53;;;;;;;10.70;1.88;;;;;;;8.08;100.00;100430.09;5066474;28;20044;-83
2023/01/12 06:45:21;;;;;;;8.25;1.92;;;;;;;8.09;100.00;100422.13;5064353;28;20493;-83
2023/01/12 06:47:50;;;;;;;6.45;1.70;;;;;;;8.09;100.00;100416.06;5082640;28;20048;-82
2023/01/12 06:50:16;;;;;;;8.35;2.00;;;;;;;8.11;100.00;100433.34;5088924;28;20082;-83
2023/01/12 06:52:42;;;;;;;9.45;2.22;;;;;;;8.14;100.00;100421.81;5071509;28;20392;-83
2023/01/12 06:55:07;;;;;;;6.80;1.92;;;;;;;8.16;100.00;100431.22;5065872;28;20036;-83
2023/01/12 06:57:35;;;;;;;6.80;1.70;;;;;;;8.15;100.00;100426.09;5069759;28;20128;-82
2023/01/12 07:00:01;;;;;;;7.25;1.75;;;;;;;8.17;100.00;100422.41;5066301;28;20033;-80
2023/01/12 07:02:29;;;;;;;7.82;1.67;;;;;;;8.16;100.00;100415.50;5079223;28;20063;-84
2023/01/12 07:04:54;;;;;;;5.93;1.67;;;;;;;8.16;100.00;100418.13;5067635;28;20047;-83
2023/01/12 07:07:20;;;;;;;7.28;1.80;;;;;;;8.17;100.00;100409.31;5065690;28;20032;-82
2023/01/12 07:09:45;;;;;;;6.25;1.70;;;;;;;8.22;100.00;100421.25;5042559;28;20041;-83
2023/01/12 07:12:11;;;;;;;4.93;1.63;;;;;;;8.23;100.00;100415.91;5068595;28;20396;-83
2023/01/12 07:14:36;;;;;;;7.22;1.50;;;;;;;8.26;100.00;100417.47;5053136;28;20041;-82
2023/01/12 07:17:02;;;;;;;6.60;1.70;;;;;;;8.27;100.00;100427.00;5070717;28;20047;-82
2023/01/12 07:19:28;;;;;;;6.20;1.60;;;;;;;8.27;100.00;100416.53;5069899;28;20040;-82
2023/01/12 07:21:53;;;;;;;5.22;1.50;;;;;;;8.30;100.00;100425.00;5078135;28;20039;-82
2023/01/12 07:24:22;;;;;;;4.57;1.48;;;;;;;8.29;100.00;100436.44;5077430;28;20108;-81
2023/01/12 07:26:52;;;;;;;7.30;1.50;;;;;;;8.28;100.00;100431.28;5079132;28;20115;-82
2023/01/12 07:29:20;;;;;;;5.10;1.52;;;;;;;8.27;100.00;100427.84;5074560;28;20033;-81
2023/01/12 07:31:47;;;;;;;5.18;1.73;;;;;;;8.30;100.00;100429.41;5079458;28;20536;-82
2023/01/12 07:34:16;;;;;;;5.60;1.48;;;;;;;8.27;100.00;100432.25;5079187;28;20388;-82
2023/01/12 07:36:41;;;;;;;6.53;1.52;;;;;;;8.29;100.00;100430.34;5078027;28;20455;-82
2023/01/12 07:39:09;;;;;;;4.78;1.40;;;;;;;8.30;100.00;100437.25;5080015;28;20028;-82
2023/01/12 07:44:20;;;;;;;4.28;1.50;;;;;;;8.33;100.00;100437.03;5076452;28;20058;-84
2023/01/12 07:46:45;;;;;;;8.45;1.92;;;;;;;8.34;100.00;100438.75;5060256;28;20083;-83
2023/01/12 07:49:10;;;;;;;6.43;1.77;;;;;;;8.35;100.00;100440.44;5076863;28;20040;-84
2023/01/12 07:51:36;;;;;;;5.82;1.70;;;;;;;8.39;100.00;100449.75;5077337;28;20048;-83
2023/01/12 07:54:01;;;;;;;6.75;1.67;;;;;;;8.40;100.00;100443.56;5081707;28;20024;-83
2023/01/12 07:56:26;;;;;;;8.07;1.77;;;;;;;8.41;100.00;100447.88;5070680;28;20108;-83
2023/01/12 07:58:52;;;;;;;4.88;1.40;;;;;;;8.41;100.00;100451.34;5051407;28;20086;-83
2023/01/12 08:01:23;;;;;;;4.72;1.55;;;;;;;8.43;100.00;100453.84;5070246;28;20048;-83
2023/01/12 08:03:48;;;;;;;4.70;1.40;;;;;;;8.44;100.00;100455.53;5068419;28;20033;-83
2023/01/12 08:06:14;;;;;;;5.45;1.50;;;;;;;8.44;100.00;100453.75;5070464;28;20499;-82
2023/01/12 08:08:46;;;;;;;4.15;1.60;;;;;;;8.44;100.00;100463.38;5071289;28;20033;-83
2023/01/12 08:11:11;;;;;;;8.20;1.63;;;;;;;8.45;100.00;100467.69;5072111;28;20442;-83
2023/01/12 08:13:39;;;;;;;6.03;1.58;;;;;;;8.47;100.00;100479.75;5072816;28;20040;-80
2023/01/12 08:16:26;;;;;;;5.00;1.42;;;;;;;8.48;100.00;100483.19;5066280;28;20362;-81
2023/01/12 08:19:00;;;;;;;5.85;1.70;;;;;;;8.51;100.00;100475.09;5051552;28;20455;-82
2023/01/12 08:21:32;;;;;;;6.40;2.20;;;;;;;8.50;100.00;100483.91;5072514;28;20036;-83
2023/01/12 08:24:05;;;;;;;4.60;1.50;;;;;;;8.51;100.00;100488.22;5064888;28;20308;-82
2023/01/12 08:26:35;;;;;;;5.35;1.58;;;;;;;8.51;100.00;100474.28;5070170;28;20036;-83
2023/01/12 08:29:11;;;;;;;4.38;1.30;;;;;;;8.53;100.00;100490.72;5071265;28;20039;-83
2023/01/12 08:31:39;;;;;;;4.65;1.30;;;;;;;8.54;100.00;100493.25;5071198;28;20032;-83
2023/01/12 08:34:06;;;;;;;5.70;1.60;;;;;;;8.55;100.00;100500.16;5070185;28;20055;-84
2023/01/12 08:36:38;;;;;;;4.07;1.50;;;;;;;8.56;100.00;100499.22;5076449;28;20036;-83
2023/01/12 08:39:03;;;;;;;3.65;1.33;;;;;;;8.57;100.00;100495.66;5077802;28;20377;-83
2023/01/12 08:42:12;;;;;;;4.43;1.30;;;;;;;8.58;100.00;100505.19;5080602;28;20047;-84
2023/01/12 08:44:38;;;;;;;5.80;1.70;;;;;;;8.60;100.00;100505.91;5075058;28;20044;-84
2023/01/12 08:47:27;;;;;;;4.93;1.40;;;;;;;8.61;100.00;100512.84;5039269;28;20107;-84
2023/01/12 08:49:57;;;;;;;5.47;1.70;;;;;;;8.63;100.00;100515.34;5080863;28;20037;-83
2023/01/12 08:52:33;;;;;;;4.50;1.60;;;;;;;8.64;100.00;100520.47;5052146;28;20033;-84
2023/01/12 08:55:42;;;;;;;4.57;1.42;;;;;;;8.65;100.00;100522.16;5039283;28;20040;-84
2023/01/12 08:58:42;;;;;;;7.10;1.40;;;;;;;8.66;100.00;100518.59;5050169;28;20083;-83
2023/01/12 09:01:10;;;;;;;4.82;1.83;;;;;;;8.70;100.00;100519.19;5068224;28;20064;-84
2023/01/12 09:03:36;;;;;;;3.65;1.52;;;;;;;8.71;100.00;100521.72;5068495;28;20436;-83
2023/01/12 09:06:14;;;;;;;4.57;1.50;;;;;;;8.73;100.00;100525.06;5065002;28;20478;-84
2023/01/12 09:08:46;;;;;;;4.25;1.25;;;;;;;8.74;100.00;100518.88;5063899;28;20036;-83
2023/01/12 09:11:15;;;;;;;4.20;1.27;;;;;;;8.76;100.00;100524.00;5051213;28;20489;-83
2023/01/12 09:13:57;;;;;;;4.55;1.40;;;;;;;8.76;100.00;100526.63;5067144;28;20063;-84
2023/01/12 09:16:24;;;;;;;3.88;1.38;;;;;;;8.79;100.00;100522.00;5051192;28;20036;-84
2023/01/12 09:18:50;;;;;;;4.10;1.48;;;;;;;8.81;100.00;100523.69;5051125;28;20045;-84
2023/01/12 09:24:30;;;;;;;4.20;1.30;;;;;;;8.86;100.00;100534.69;5069689;28;20036;-83
2023/01/12 09:26:56;;;;;;;3.25;1.33;;;;;;;8.86;100.00;100538.16;5071926;28;20032;-83
2023/01/12 09:29:21;;;;;;;2.95;1.50;;;;;;;8.90;100.00;100536.16;5076863;28;20539;-83
2023/01/12 09:31:47;;;;;;;2.55;1.20;;;;;;;8.90;100.00;100537.00;5080545;28;20451;-84
2023/01/12 09:34:12;;;;;;;2.38;1.17;;;;;;;8.91;100.00;100536.03;5089691;28;20066;-84
2023/01/12 09:36:40;;;;;;;3.63;1.20;;;;;;;8.93;100.00;100541.19;5060512;28;20044;-85
2023/01/12 09:40:12;;;;;;;4.30;1.30;;;;;;;8.98;100.00;100560.06;5075299;28;20027;-84
2023/01/12 09:48:24;;;;;;;2.75;1.00;;;;;;;8.99;100.00;100551.22;5090959;28;20055;-83
2023/01/12 09:51:16;;;;;;;3.08;1.00;;;;;;;9.00;100.00;100560.78;5055704;28;20443;-84
2023/01/12 09:53:51;;;;;;;2.53;1.03;;;;;;;8.99;100.00;100561.72;5052406;28;20036;-84
2023/01/12 09:56:51;;;;;;;2.63;0.90;;;;;;;9.00;100.00;100568.66;5052368;28;20071;-84
2023/01/12 10:03:21;;;;;;;2.20;0.90;;;;;;;9.02;100.00;100567.59;5076645;28;20032;-85
2023/01/12 10:06:01;;;;;;;2.45;0.90;;;;;;;9.05;100.00;100566.53;5067350;28;20040;-84
2023/01/12 10:09:01;;;;;;;2.55;0.90;;;;;;;9.02;100.00;100570.22;5060113;28;20128;-84
2023/01/12 10:11:51;;;;;;;3.20;1.10;;;;;;;9.07;100.00;100583.00;5056611;28;20036;-84
2023/01/12 10:18:11;;;;;;;2.22;0.82;;;;;;;9.09;100.00;100579.31;5067506;28;20048;-84
2023/01/12 10:21:04;;;;;;;2.78;1.00;;;;;;;9.12;100.00;100578.25;5069140;28;20115;-84
2023/01/12 10:23:30;;;;;;;2.40;0.98;;;;;;;9.10;100.00;100581.00;5082155;28;20431;-84
2023/01/12 10:29:45;;;;;;;1.85;0.80;;;;;;;9.12;100.00;100578.25;5083251;28;20028;-85
2023/01/12 10:32:29;;;;;;;2.38;0.80;;;;;;;9.14;100.00;100568.47;5081469;28;20040;-84
2023/01/12 10:34:54;;;;;;;1.98;0.80;;;;;;;9.13;100.00;100572.06;5050217;28;20080;-81
2023/01/12 10:37:20;;;;;;;2.83;1.02;;;;;;;9.17;100.00;100568.25;5085226;28;20559;-83
2023/01/12 10:39:52;;;;;;;2.47;0.90;;;;;;;9.17;100.00;100567.41;5086403;28;20036;-81
2023/01/12 10:45:42;;;;;;;0.60;0.52;;;;;;;9.23;100.00;100559.97;5084484;28;20412;-83
2023/01/12 10:48:20;;;;;;;1.27;0.70;;;;;;;9.24;100.00;100568.66;5075429;28;20074;-80
2023/01/12 10:51:02;;;;;;;1.48;0.70;;;;;;;9.24;100.00;100572.13;5072672;28;20054;-84
2023/01/12 10:53:37;;;;;;;;;;;;;;;9.30;100.00;100576.09;5078678;28;20028;-84
2023/01/12 10:56:24;;;;;;;1.63;0.90;;;;;;;9.27;100.00;100566.66;5086160;28;19912;-84
2023/01/12 11:02:37;;;;;;;3.30;0.90;;;;;;;9.28;100.00;100564.88;5068094;28;20063;-83
2023/01/12 11:05:52;;;;;;;2.15;0.70;;;;;;;9.27;100.00;100571.91;5073095;28;20049;-83
2023/01/12 11:08:28;;;;;;;1.20;0.70;;;;;;;9.28;100.00;100567.50;5079716;28;20378;-82
2023/01/12 11:11:12;;;;;;;1.15;0.63;;;;;;;9.28;100.00;100580.63;5074530;28;20117;-82
2023/01/12 11:14:00;;;;;;;1.58;0.80;;;;;;;9.28;100.00;100578.84;5079976;28;20028;-85
2023/01/12 11:16:31;;;;;;;2.97;1.00;;;;;;;9.27;100.00;100582.41;5076057;28;20044;-84
2023/01/12 11:19:16;;;;;;;3.67;0.98;;;;;;;9.29;100.00;100564.75;5071908;28;20033;-84
2023/01/12 11:21:55;;;;;;;2.20;0.90;;;;;;;9.30;100.00;100565.59;5072106;28;20029;-84
2023/01/12 11:24:41;;;;;;;1.80;0.77;;;;;;;9.33;100.00;100568.00;5073733;28;20044;-84
2023/01/12 11:31:31;;;;;;;;;;;;;;;;;;;;;
2023/01/12 11:34:12;;;;;;;1.48;0.82;;;;;;;9.34;100.00;100567.03;5052155;28;20511;-84
2023/01/12 11:40:34;;;;;;;1.77;0.80;;;;;;;9.37;100.00;100559.78;5029757;28;20021;-83
2023/01/12 11:43:54;;;;;;;1.45;0.70;;;;;;;9.38;100.00;100558.00;5064333;28;20119;-84
2023/01/12 11:46:55;;;;;;;1.35;0.80;;;;;;;9.35;100.00;100553.81;5065985;28;20061;-84
2023/01/12 11:49:58;;;;;;;1.45;0.93;;;;;;;9.40;100.00;100549.03;5065925;28;20048;-84
2023/01/12 11:52:26;;;;;;;2.40;1.02;;;;;;;9.39;100.00;100557.03;5050791;28;20131;-84
2023/01/12 11:54:54;;;;;;;4.75;1.00;;;;;;;9.38;100.00;100543.06;5066839;28;20043;-84
2023/01/12 11:58:05;;;;;;;1.08;0.90;;;;;;;9.41;100.00;100548.09;5062048;28;20070;-83
2023/01/12 12:01:24;;;;;;;2.15;1.00;;;;;;;9.46;100.00;100544.28;5063693;28;20575;-84
2023/01/12 12:04:24;;;;;;;1.45;0.90;;;;;;;9.46;100.00;100546.91;5070970;28;20102;-84
2023/01/12 12:07:20;;;;;;;1.73;0.80;;;;;;;9.47;100.00;100545.97;5052812;28;20111;-83
2023/01/12 12:09:59;;;;;;;2.38;0.70;;;;;;;9.48;100.00;100532.72;5051455;28;20113;-84
2023/01/12 12:13:00;;;;;;;;;;;;;;;;;;;;;
2023/01/12 12:15:45;;;;;;;1.70;1.00;;;;;;;9.51;100.00;100526.41;5066297;28;20040;-84
2023/01/12 12:18:11;;;;;;;1.75;0.85;;;;;;;9.52;100.00;100526.28;5072883;28;20040;-82
2023/01/12 12:20:59;;;;;;;3.00;0.80;;;;;;;9.54;100.00;100518.28;5056690;28;20036;-84
2023/01/12 12:23:45;;;;;;;2.13;0.95;;;;;;;9.53;100.00;100525.31;5054078;28;20041;-83
2023/01/12 12:27:01;;;;;;;2.08;0.93;;;;;;;9.54;100.00;100520.91;5067444;28;20033;-84
2023/01/12 12:30:28;;;;;;;1.48;0.90;;;;;;;9.54;100.00;100520.91;5054634;28;20385;-83
2023/01/12 12:33:13;;;;;;;3.15;0.80;;;;;;;9.47;100.00;100514.44;5069011;28;20036;-84
2023/01/12 12:36:24;;;;;;;3.15;1.00;;;;;;;9.46;100.00;100516.25;5070892;28;20055;-83
2023/01/12 12:45:39;;;;;;;2.13;0.80;;;;;;;9.42;100.00;100505.13;5070096;28;20038;-83
2023/01/12 12:48:25;;;;;;;1.10;0.73;;;;;;;9.42;100.00;100518.25;5068472;28;20469;-83
2023/01/12 12:51:13;;;;;;;1.95;0.80;;;;;;;9.41;100.00;100516.59;5086790;28;20032;-81
2023/01/12 12:53:43;;;;;;;3.28;1.33;;;;;;;9.42;100.00;100499.88;5052087;28;20048;-82
2023/01/12 12:56:13;;;;;;;1.85;0.80;;;;;;;9.40;100.00;100499.16;5069929;28;20049;-83
2023/01/12 12:59:06;;;;;;;2.47;0.70;;;;;;;9.41;100.00;100500.00;5069252;28;20036;-81
2023/01/12 13:01:31;;;;;;;1.38;0.75;;;;;;;9.42;100.00;100492.00;5047714;28;20052;-83
2023/01/12 13:03:57;;;;;;;1.55;1.00;;;;;;;9.42;100.00;100507.75;5059209;28;20656;-82
2023/01/12 13:06:30;;;;;;;2.42;0.80;;;;;;;9.43;100.00;100493.69;5061314;28;20500;-85